createdAt,value
2019-04-09T00:00:18.812Z,34.47
2019-04-09T00:03:01.487Z,33.60
2019-04-09T00:05:31.708Z,34.83
2019-04-09T00:08:05.512Z,36.73
2019-04-09T00:10:34.857Z,33.90
2019-04-09T00:13:05.765Z,34.10
2019-04-09T00:15:36.033Z,33.27
2019-04-09T00:18:06.379Z,32.70
2019-04-09T00:20:37.134Z,34.07
2019-04-09T00:23:08.049Z,34.87
2019-04-09T00:25:39.153Z,34.37
2019-04-09T00:28:09.803Z,32.07
2019-04-09T00:30:39.871Z,31.37
2019-04-09T00:33:10.098Z,34.10
2019-04-09T00:35:39.795Z,32.67
2019-04-09T00:38:10.228Z,36.70
2019-04-09T00:40:40.089Z,33.03
2019-04-09T00:43:10.288Z,35.50
2019-04-09T00:45:40.682Z,33.40
2019-04-09T00:48:11.487Z,34.27
2019-04-09T00:50:41.697Z,35.07
2019-04-09T00:53:11.636Z,35.57
2019-04-09T00:55:41.664Z,37.93
2019-04-09T00:58:12.128Z,36.07
2019-04-09T01:00:47.571Z,37.43
2019-04-09T01:03:18.384Z,34.47
2019-04-09T01:05:48.104Z,35.37
2019-04-09T01:08:18.871Z,37.97
2019-04-09T01:10:48.654Z,38.73
2019-04-09T01:13:18.601Z,37.40
2019-04-09T01:15:49.117Z,34.37
2019-04-09T01:18:19.171Z,37.73
2019-04-09T01:20:49.918Z,37.83
2019-04-09T01:23:19.683Z,38.43
2019-04-09T01:26:09.598Z,36.67
2019-04-09T01:28:47.383Z,39.07
2019-04-09T01:31:37.896Z,36.53
2019-04-09T01:34:20.561Z,36.00
2019-04-09T01:37:09.354Z,38.03
2019-04-09T01:40:04.069Z,36.70
2019-04-09T01:42:56.170Z,38.53
2019-04-09T01:45:35.538Z,37.80
2019-04-09T01:48:32.222Z,38.53
2019-04-09T01:51:10.510Z,41.20
2019-04-09T01:53:48.665Z,37.07
2019-04-09T01:56:55.989Z,40.67
2019-04-09T01:59:41.474Z,38.00
2019-04-09T02:02:29.389Z,38.80
2019-04-09T02:05:19.189Z,41.33
2019-04-09T02:07:55.333Z,35.03
2019-04-09T02:10:56.047Z,45.07
2019-04-09T02:13:42.456Z,39.53
2019-04-09T02:16:37.592Z,41.03
2019-04-09T02:19:32.302Z,37.50
2019-04-09T02:22:06.653Z,37.30
2019-04-09T02:25:14.521Z,36.90
2019-04-09T02:28:04.996Z,35.90
2019-04-09T02:30:53.183Z,36.07
2019-04-09T02:33:40.803Z,35.57
2019-04-09T02:36:38.733Z,36.30
2019-04-09T02:39:30.674Z,34.83
2019-04-09T02:42:23.139Z,35.53
2019-04-09T02:45:24.490Z,37.23
2019-04-09T02:48:25.705Z,34.43
2019-04-09T02:51:17.986Z,35.10
2019-04-09T02:54:00.745Z,35.80
2019-04-09T02:56:39.599Z,35.30
2019-04-09T02:59:28.164Z,38.23
2019-04-09T03:02:17.480Z,35.83
2019-04-09T03:05:07.308Z,37.77
2019-04-09T03:07:56.630Z,36.90
2019-04-09T03:10:36.482Z,37.80
2019-04-09T03:13:26.135Z,35.87
2019-04-09T03:16:23.931Z,37.47
2019-04-09T03:19:10.949Z,38.20
2019-04-09T03:22:02.876Z,37.40
2019-04-09T03:24:49.721Z,36.70
2019-04-09T03:27:30.374Z,35.40
2019-04-09T03:30:34.809Z,35.97
2019-04-09T03:33:43.541Z,37.80
2019-04-09T03:36:32.290Z,36.90
2019-04-09T03:39:15.604Z,38.07
2019-04-09T03:42:14.313Z,37.17
2019-04-09T03:44:56.930Z,36.70
2019-04-09T03:47:44.110Z,37.23
2019-04-09T03:50:44.018Z,37.50
2019-04-09T03:53:37.125Z,37.43
2019-04-09T03:56:15.950Z,35.73
2019-04-09T03:59:10.846Z,36.70
2019-04-09T04:01:59.529Z,38.63
2019-04-09T04:04:48.306Z,38.50
2019-04-09T04:07:37.220Z,38.20
2019-04-09T04:10:42.989Z,40.30
2019-04-09T04:13:26.752Z,40.10
2019-04-09T04:16:15.646Z,41.70
2019-04-09T04:19:06.491Z,41.17
2019-04-09T04:21:58.497Z,42.07
2019-04-09T04:25:02.034Z,43.57
2019-04-09T04:27:56.799Z,40.60
2019-04-09T04:30:46.298Z,41.30
2019-04-09T04:33:41.244Z,42.90
2019-04-09T04:36:33.045Z,42.90
2019-04-09T04:39:21.419Z,42.27
2019-04-09T04:42:04.090Z,40.67
2019-04-09T04:44:55.802Z,38.40
2019-04-09T04:47:36.441Z,40.83
2019-04-09T04:50:25.629Z,40.67
2019-04-09T04:53:17.111Z,39.10
2019-04-09T04:56:23.904Z,39.23
2019-04-09T04:59:09.642Z,40.17
2019-04-09T05:01:56.947Z,42.23
2019-04-09T05:05:04.454Z,39.40
2019-04-09T05:07:44.895Z,39.23
2019-04-09T05:10:33.147Z,40.63
2019-04-09T05:13:34.389Z,41.07
2019-04-09T05:16:32.652Z,39.13
2019-04-09T05:19:26.697Z,39.00
2019-04-09T05:22:29.455Z,39.40
2019-04-09T05:25:16.310Z,40.40
2019-04-09T05:28:08.580Z,39.27
2019-04-09T05:30:56.633Z,40.50
2019-04-09T05:33:44.926Z,38.27
2019-04-09T05:36:40.921Z,39.87
2019-04-09T05:39:28.485Z,36.70
2019-04-09T05:42:17.198Z,37.10
2019-04-09T05:45:06.084Z,37.60
2019-04-09T05:47:45.723Z,38.00
2019-04-09T05:50:23.932Z,37.93
2019-04-09T05:53:03.749Z,35.20
2019-04-09T05:56:07.619Z,34.30
2019-04-09T05:59:09.765Z,35.63
2019-04-09T06:01:56.637Z,33.73
2019-04-09T06:04:42.761Z,33.50
2019-04-09T06:07:21.511Z,34.60
2019-04-09T06:09:51.153Z,36.80
2019-04-09T06:12:21.321Z,36.50
2019-04-09T06:14:52.814Z,33.50
2019-04-09T06:17:23.214Z,35.67
2019-04-09T06:19:53.342Z,33.80
2019-04-09T06:22:23.544Z,37.00
2019-04-09T06:24:54.099Z,36.03
2019-04-09T06:27:24.567Z,34.60
2019-04-09T06:29:56.217Z,35.50
2019-04-09T06:32:47.846Z,34.17
2019-04-09T06:35:30.499Z,35.23
2019-04-09T06:38:18.871Z,35.37
2019-04-09T06:41:08.697Z,35.60
2019-04-09T06:43:48.351Z,33.90
2019-04-09T06:46:36.077Z,34.90
2019-04-09T06:49:24.816Z,35.03
2019-04-09T06:52:10.365Z,36.50
2019-04-09T06:55:18.609Z,35.40
2019-04-09T06:57:56.409Z,34.63
2019-04-09T07:00:51.157Z,36.03
2019-04-09T07:03:41.244Z,36.27
2019-04-09T07:06:36.684Z,35.63
2019-04-09T07:09:39.208Z,39.00
2019-04-09T07:12:26.938Z,35.50
2019-04-09T07:15:16.005Z,33.40
2019-04-09T07:18:05.012Z,35.27
2019-04-09T07:20:53.734Z,36.50
2019-04-09T07:23:32.542Z,36.03
2019-04-09T07:26:14.271Z,33.40
2019-04-09T07:31:59.723Z,36.70
2019-04-09T07:34:38.587Z,36.17
2019-04-09T07:37:18.620Z,35.20
2019-04-09T07:40:21.997Z,35.53
2019-04-09T07:43:23.640Z,33.40
2019-04-09T07:46:13.002Z,34.20
2019-04-09T07:49:02.337Z,34.17
2019-04-09T07:51:53.144Z,37.13
2019-04-09T07:54:43.045Z,34.27
2019-04-09T07:57:26.211Z,36.70
2019-04-09T08:00:14.413Z,36.23
2019-04-09T08:02:57.997Z,35.33
2019-04-09T08:05:46.859Z,35.90
2019-04-09T08:08:38.719Z,37.33
2019-04-09T08:11:27.837Z,34.70
2019-04-09T08:14:25.040Z,34.50
2019-04-09T08:17:05.408Z,34.07
2019-04-09T08:20:09.198Z,35.03
2019-04-09T08:23:00.823Z,37.77
2019-04-09T08:25:50.717Z,35.40
2019-04-09T08:31:53.855Z,35.65
2019-04-09T08:54:30.389Z,35.30
2019-04-09T08:57:06.164Z,37.33
2019-04-09T08:59:53.130Z,36.83
2019-04-09T09:02:40.636Z,35.17
2019-04-09T09:10:52.740Z,35.47
2019-04-09T09:13:41.176Z,35.10
2019-04-09T09:16:48.365Z,34.60
2019-04-09T09:19:52.896Z,33.05
2019-04-09T09:22:41.601Z,36.10
2019-04-09T09:25:27.501Z,34.55
2019-04-09T09:28:18.938Z,32.87
2019-04-09T09:31:13.282Z,32.50
2019-04-09T09:34:06.411Z,32.50
2019-04-09T09:56:56.148Z,31.90
2019-04-09T09:59:38.738Z,33.77
2019-04-09T10:02:40.433Z,33.60
2019-04-09T10:05:26.126Z,31.23
2019-04-09T10:08:15.182Z,33.10
2019-04-09T10:11:02.031Z,30.03
2019-04-09T10:13:48.700Z,32.37
2019-04-09T10:16:42.555Z,31.70
2019-04-09T10:19:38.004Z,32.20
2019-04-09T10:22:33.401Z,30.90
2019-04-09T10:25:13.314Z,32.03
2019-04-09T10:28:04.933Z,30.60
2019-04-09T10:30:53.235Z,30.97
2019-04-09T10:33:41.418Z,29.63
2019-04-09T10:36:34.227Z,29.37
2019-04-09T10:39:19.951Z,29.10
2019-04-09T10:42:21.715Z,29.97
2019-04-09T10:45:06.071Z,30.20
2019-04-09T10:47:54.113Z,29.13
2019-04-09T10:50:52.660Z,30.15
2019-04-09T10:53:48.138Z,29.43
2019-04-09T10:56:32.901Z,28.90
2019-04-09T10:59:29.757Z,32.27
2019-04-09T11:02:16.536Z,29.10
2019-04-09T11:05:04.284Z,31.00
2019-04-09T11:07:57.314Z,29.07
2019-04-09T11:11:05.355Z,28.13
2019-04-09T11:13:47.741Z,28.60
2019-04-09T11:16:29.375Z,27.87
2019-04-09T11:19:31.515Z,29.70
2019-04-09T11:22:20.539Z,28.93
2019-04-09T11:25:16.637Z,28.23
2019-04-09T11:28:06.854Z,29.03
2019-04-09T11:30:55.804Z,27.67
2019-04-09T11:33:51.035Z,26.50
2019-04-09T11:36:45.402Z,28.17
2019-04-09T11:39:28.182Z,26.97
2019-04-09T11:42:03.625Z,25.60
2019-04-09T11:44:53.266Z,26.90
2019-04-09T11:47:41.275Z,26.93
2019-04-09T11:50:28.273Z,25.30
2019-04-09T11:53:17.602Z,26.97
2019-04-09T11:56:07.413Z,25.97
2019-04-09T11:58:46.909Z,26.10
2019-04-09T12:01:57.975Z,25.37
2019-04-09T12:04:40.245Z,23.87
2019-04-09T12:07:46.872Z,26.50
2019-04-09T12:10:48.264Z,24.00
2019-04-09T12:13:38.203Z,23.97
2019-04-09T12:16:45.882Z,25.30
2019-04-09T12:19:40.969Z,25.90
2019-04-09T12:22:39.780Z,25.50
2019-04-09T12:25:42.220Z,25.13
2019-04-09T12:28:28.883Z,25.30
2019-04-09T12:31:32.903Z,24.27
2019-04-09T12:34:28.422Z,24.43
2019-04-09T12:37:19.542Z,23.40
2019-04-09T12:40:21.010Z,22.47
2019-04-09T12:43:18.866Z,23.50
2019-04-09T12:46:21.175Z,23.23
2019-04-09T12:49:09.089Z,22.27
2019-04-09T12:52:07.192Z,22.60
2019-04-09T12:54:56.079Z,23.40
2019-04-09T12:57:37.729Z,22.30
2019-04-09T13:00:25.618Z,22.67
2019-04-09T13:03:14.397Z,24.87
2019-04-09T13:06:01.076Z,22.73
2019-04-09T13:08:56.065Z,22.40
2019-04-09T13:11:43.850Z,23.17
2019-04-09T13:14:31.320Z,23.60
2019-04-09T13:17:26.049Z,23.40
2019-04-09T13:20:20.507Z,23.17
2019-04-09T13:23:12.430Z,22.50
2019-04-09T13:26:06.630Z,21.90
2019-04-09T13:28:58.671Z,20.83
2019-04-09T13:31:50.874Z,22.93
2019-04-09T13:34:50.010Z,23.23
2019-04-09T13:37:30.698Z,21.77
2019-04-09T13:40:11.205Z,21.87
2019-04-09T13:43:03.410Z,23.83
2019-04-09T13:45:52.596Z,24.53
2019-04-09T13:48:42.551Z,23.60
2019-04-09T13:51:38.189Z,21.87
2019-04-09T13:54:09.089Z,22.83
2019-04-09T13:56:39.236Z,21.97
2019-04-09T13:59:09.993Z,22.27
2019-04-09T14:01:40.892Z,21.80
2019-04-09T14:04:29.297Z,23.33
2019-04-09T14:06:59.324Z,23.70
2019-04-09T14:12:03.833Z,22.35
2019-04-09T14:14:33.731Z,22.50
2019-04-09T14:19:33.780Z,21.50
2019-04-09T14:22:06.559Z,22.30
2019-04-09T14:24:35.428Z,21.23
2019-04-09T14:27:05.841Z,22.40
2019-04-09T14:29:36.618Z,21.50
2019-04-09T14:37:05.703Z,20.47
2019-04-09T14:39:36.246Z,20.80
2019-04-09T14:42:06.252Z,21.13
2019-04-09T14:44:36.627Z,20.30
2019-04-09T14:47:06.356Z,22.17
2019-04-09T14:49:37.290Z,20.65
2019-04-09T14:52:07.913Z,21.03
2019-04-09T14:54:37.695Z,20.70
2019-04-09T14:57:08.232Z,22.15
2019-04-09T14:59:38.321Z,23.00
2019-04-09T15:02:09.383Z,20.85
2019-04-09T15:04:39.603Z,21.25
2019-04-09T15:07:10.549Z,20.00
2019-04-09T15:09:41.274Z,20.35
2019-04-09T15:12:11.130Z,21.60
2019-04-09T15:14:40.983Z,21.00
2019-04-09T15:17:11.912Z,20.00
2019-04-09T15:19:42.119Z,20.40
2019-04-09T15:22:29.971Z,21.00
2019-04-09T15:25:00.001Z,20.60
2019-04-09T15:27:29.699Z,20.60
2019-04-09T15:29:59.445Z,19.80
2019-04-09T15:32:29.118Z,21.10
2019-04-09T15:35:00.092Z,20.47
2019-04-09T15:37:29.928Z,21.00
2019-04-09T15:40:00.862Z,19.80
2019-04-09T15:42:30.748Z,22.05
2019-04-09T15:45:00.891Z,21.40
2019-04-09T15:47:31.690Z,20.85
2019-04-09T15:59:59.386Z,22.95
2019-04-09T16:02:30.268Z,24.50
2019-04-09T16:05:00.903Z,21.50
2019-04-09T16:07:31.150Z,23.90
2019-04-09T16:10:01.017Z,23.83
2019-04-09T16:12:30.726Z,21.63
2019-04-09T16:15:00.536Z,22.20
2019-04-09T16:17:31.141Z,21.70
2019-04-09T16:20:00.879Z,22.50
2019-04-09T16:22:30.697Z,22.57
2019-04-09T16:25:00.771Z,22.13
2019-04-09T16:27:30.483Z,23.00
2019-04-09T16:30:01.158Z,22.60
2019-04-09T16:32:31.485Z,23.67
2019-04-09T16:35:01.272Z,23.10
2019-04-09T16:37:32.005Z,23.13
2019-04-09T16:40:02.604Z,25.07
2019-04-09T16:42:39.789Z,25.30
2019-04-09T16:45:08.958Z,24.27
2019-04-09T16:47:36.537Z,24.40
2019-04-09T16:50:08.258Z,23.87
2019-04-09T16:52:38.397Z,24.27
2019-04-09T16:55:09.513Z,23.70
2019-04-09T16:57:39.701Z,23.93
2019-04-09T17:00:13.569Z,25.33
2019-04-09T17:02:44.866Z,25.03
2019-04-09T17:05:14.729Z,24.17
2019-04-09T17:07:44.768Z,24.40
2019-04-09T17:10:14.884Z,25.00
2019-04-09T17:12:44.520Z,24.00
2019-04-09T17:15:15.969Z,24.03
2019-04-09T17:17:46.537Z,24.03
2019-04-09T17:20:16.891Z,24.23
2019-04-09T17:22:46.704Z,27.53
2019-04-09T17:25:16.928Z,25.90
2019-04-09T17:27:47.066Z,24.50
2019-04-09T17:30:17.721Z,24.27
2019-04-09T17:32:47.461Z,23.43
2019-04-09T17:35:17.528Z,26.43
2019-04-09T17:37:47.372Z,24.23
2019-04-09T17:40:17.548Z,23.60
2019-04-09T17:42:47.229Z,23.73
2019-04-09T17:45:18.357Z,25.20
2019-04-09T17:47:48.227Z,24.80
2019-04-09T17:50:18.028Z,23.73
2019-04-09T17:52:47.979Z,23.10
2019-04-09T17:55:17.701Z,24.97
2019-04-09T17:57:48.476Z,24.53
2019-04-09T18:00:22.111Z,25.80
2019-04-09T18:02:53.258Z,24.83
2019-04-09T18:05:23.306Z,24.90
2019-04-09T18:07:53.354Z,26.50
2019-04-09T18:10:23.136Z,25.10
2019-04-09T18:12:52.866Z,24.30
2019-04-09T18:15:23.502Z,24.63
2019-04-09T18:17:53.702Z,23.63
2019-04-09T18:20:24.144Z,24.07
2019-04-09T18:22:54.257Z,22.20
2019-04-09T18:25:24.254Z,22.97
2019-04-09T18:27:54.345Z,24.00
2019-04-09T18:30:24.348Z,23.20
2019-04-09T18:32:55.976Z,23.43
2019-04-09T18:35:26.461Z,22.43
2019-04-09T18:37:56.764Z,22.83
2019-04-09T18:40:26.560Z,23.27
2019-04-09T18:42:58.061Z,23.13
2019-04-09T18:45:28.751Z,24.20
2019-04-09T18:47:58.574Z,22.50
2019-04-09T18:50:28.996Z,24.20
2019-04-09T18:52:59.132Z,22.33
2019-04-09T18:55:30.782Z,22.73
2019-04-09T18:58:01.298Z,23.77
2019-04-09T19:00:38.652Z,22.30
2019-04-09T19:03:09.734Z,22.70
2019-04-09T19:05:40.807Z,22.47
2019-04-09T19:08:11.062Z,22.70
2019-04-09T19:10:41.316Z,24.43
2019-04-09T19:13:13.995Z,23.00
2019-04-09T19:15:44.021Z,22.47
2019-04-09T19:18:13.833Z,22.93
2019-04-09T19:20:43.970Z,21.77
2019-04-09T19:23:13.918Z,23.17
2019-04-09T19:25:44.514Z,22.10
2019-04-09T19:28:15.188Z,24.03
2019-04-09T19:30:44.960Z,24.33
2019-04-09T19:33:15.941Z,22.60
2019-04-09T19:35:45.930Z,24.33
2019-04-09T19:38:18.059Z,23.93
2019-04-09T19:40:47.177Z,23.67
2019-04-09T19:43:17.575Z,24.20
2019-04-09T19:45:47.808Z,23.20
2019-04-09T19:48:17.954Z,23.33
2019-04-09T19:50:48.086Z,24.07
2019-04-09T19:53:18.125Z,23.90
2019-04-09T19:55:48.751Z,24.37
2019-04-09T19:58:18.959Z,23.73
2019-04-09T20:00:48.568Z,22.73
2019-04-09T20:03:19.030Z,22.17
2019-04-09T20:05:48.908Z,23.70
2019-04-09T20:08:18.773Z,22.90
2019-04-09T20:10:48.802Z,24.77
2019-04-09T20:13:19.693Z,22.80
2019-04-09T20:15:50.600Z,23.00
2019-04-09T20:18:20.340Z,22.23
2019-04-09T20:20:51.431Z,21.77
2019-04-09T20:23:23.440Z,22.80
2019-04-09T20:25:53.601Z,23.20
2019-04-09T20:28:23.583Z,22.53
2019-04-09T20:30:54.449Z,23.23
2019-04-09T20:33:25.417Z,22.90
2019-04-09T20:35:55.348Z,21.90
2019-04-09T20:38:25.381Z,22.10
2019-04-09T20:40:55.113Z,22.23
2019-04-09T20:43:25.015Z,24.10
2019-04-09T20:45:55.399Z,22.20
2019-04-09T20:48:26.064Z,22.13
2019-04-09T20:50:55.911Z,20.50
2019-04-09T20:53:26.089Z,21.23
2019-04-09T20:55:56.204Z,21.63
2019-04-09T20:58:26.717Z,21.07
2019-04-09T21:01:15.587Z,22.10
2019-04-09T21:04:08.625Z,20.47
2019-04-09T21:06:40.113Z,21.60
2019-04-09T21:09:09.961Z,19.43
2019-04-09T21:11:40.263Z,20.17
2019-04-09T21:14:10.225Z,19.07
2019-04-09T21:16:40.708Z,19.33
2019-04-09T21:19:10.650Z,19.67
2019-04-09T21:21:41.470Z,19.00
2019-04-09T21:24:11.657Z,20.10
2019-04-09T21:26:42.692Z,19.73
2019-04-09T21:29:12.489Z,20.97
2019-04-09T21:31:42.639Z,19.30
2019-04-09T21:34:13.640Z,19.70
2019-04-09T21:36:43.976Z,20.60
2019-04-09T21:39:14.479Z,19.77
2019-04-09T21:41:45.038Z,20.77
2019-04-09T21:44:14.884Z,20.00
2019-04-09T21:46:44.794Z,18.80
2019-04-09T21:49:15.800Z,19.83
2019-04-09T21:51:46.068Z,20.23
2019-04-09T21:54:15.961Z,18.00
2019-04-09T21:56:46.983Z,18.90
2019-04-09T21:59:17.764Z,18.50
2019-04-09T22:01:49.335Z,19.50
2019-04-09T22:04:19.336Z,17.40
2019-04-09T22:06:49.454Z,16.53
2019-04-09T22:09:20.736Z,18.03
2019-04-09T22:11:51.810Z,18.30
2019-04-09T22:14:22.848Z,18.33
2019-04-09T22:16:52.849Z,17.73
2019-04-09T22:19:24.174Z,18.43
2019-04-09T22:21:54.546Z,18.33
2019-04-09T22:24:24.625Z,18.20
2019-04-09T22:26:54.445Z,18.40
2019-04-09T22:29:25.246Z,17.90
2019-04-09T22:31:55.444Z,18.30
2019-04-09T22:34:26.204Z,18.23
2019-04-09T22:36:57.118Z,18.93
2019-04-09T22:39:26.972Z,17.70
2019-04-09T22:41:57.645Z,16.23
2019-04-09T22:44:27.433Z,16.77
2019-04-09T22:46:57.117Z,17.80
2019-04-09T22:49:26.849Z,18.50
2019-04-09T22:51:56.860Z,18.40
2019-04-09T22:54:27.385Z,16.50
2019-04-09T22:56:57.867Z,15.67
2019-04-09T22:59:27.916Z,17.27
2019-04-09T23:02:16.249Z,16.10
2019-04-09T23:05:08.756Z,17.50
2019-04-09T23:07:46.830Z,18.57
2019-04-09T23:10:48.350Z,18.30
2019-04-09T23:13:18.606Z,17.13
2019-04-09T23:15:49.785Z,16.90
2019-04-09T23:18:20.959Z,16.87
2019-04-09T23:20:50.876Z,15.97
2019-04-09T23:23:20.835Z,17.00
2019-04-09T23:25:50.480Z,16.27
2019-04-09T23:28:21.191Z,15.20
2019-04-09T23:30:50.832Z,17.17
2019-04-09T23:33:20.641Z,16.30
2019-04-09T23:35:51.531Z,17.07
2019-04-09T23:38:21.612Z,16.07
2019-04-09T23:40:51.353Z,15.67
2019-04-09T23:43:21.563Z,14.33
2019-04-09T23:45:51.720Z,16.53
2019-04-09T23:48:22.039Z,15.27
2019-04-09T23:50:52.171Z,15.50
2019-04-09T23:53:23.202Z,16.87
2019-04-09T23:55:53.879Z,15.70
2019-04-09T23:58:24.953Z,14.70
